Time;durP1;ratioP1;P1;durP2;ratioP2;P2;SDS_P1;SDS_P2;PMS_P1;PMS_P2;Temp;Humidity;BMP_temperature;BMP_pressure;BME280_temperature;BME280_humidity;BME280_pressure;Samples;Min_cycle;Max_cycle;Signal;HPM_P1;HPM_P2
2023/12/10 00:02:24;;;;;;;0.10;0.10;;;;;;;5.58;100.00;95012.22;5045053;28;20076;-77
2023/12/10 00:05:10;;;;;;;0.20;0.20;;;;;;;5.55;100.00;95011.94;5043581;28;20033;-77
2023/12/10 00:07:57;;;;;;;0.10;0.10;;;;;;;5.56;100.00;95026.81;5047237;28;20477;-78
2023/12/10 00:10:43;;;;;;;0.10;0.10;;;;;;;5.64;100.00;95015.72;5046398;28;20377;-78
2023/12/10 00:13:29;;;;;;;0.10;0.10;;;;;;;5.62;100.00;95020.50;5044076;28;20045;-78
2023/12/10 00:16:15;;;;;;;0.20;0.20;;;;;;;5.62;100.00;95017.03;5044006;28;20072;-76
2023/12/10 00:19:01;;;;;;;0.20;0.20;;;;;;;5.55;100.00;95027.84;5043868;28;20037;-77
2023/12/10 00:21:47;;;;;;;0.20;0.20;;;;;;;5.52;100.00;95031.00;5043392;28;20468;-77
2023/12/10 00:24:33;;;;;;;0.20;0.20;;;;;;;5.40;100.00;95030.38;5044226;28;20381;-77
2023/12/10 00:27:19;;;;;;;0.20;0.20;;;;;;;5.36;100.00;95035.34;5045489;28;20415;-77
2023/12/10 00:30:05;;;;;;;0.15;0.15;;;;;;;5.41;100.00;95042.56;5037153;28;20153;-77
2023/12/10 00:32:51;;;;;;;0.20;0.20;;;;;;;5.48;100.00;95054.59;5044325;28;20578;-77
2023/12/10 00:35:37;;;;;;;0.20;0.20;;;;;;;5.52;100.00;95041.59;5043640;28;20499;-77
2023/12/10 00:38:23;;;;;;;0.10;0.10;;;;;;;5.52;100.00;95049.56;5043233;28;20032;-76
2023/12/10 00:41:10;;;;;;;0.20;0.20;;;;;;;5.58;100.00;95049.38;5044918;28;20078;-76
2023/12/10 00:43:56;;;;;;;0.20;0.20;;;;;;;5.59;100.00;95063.44;5043806;28;20059;-77
2023/12/10 00:46:42;;;;;;;0.20;0.20;;;;;;;5.45;100.00;95055.09;5044136;28;20335;-76
2023/12/10 00:49:28;;;;;;;0.20;0.20;;;;;;;5.30;100.00;95063.69;5047535;28;20029;-76
2023/12/10 00:52:14;;;;;;;0.20;0.20;;;;;;;5.36;100.00;95079.66;5045651;28;20040;-77
2023/12/10 00:55:00;;;;;;;0.20;0.20;;;;;;;5.51;100.00;95101.84;5037190;28;20063;-77
2023/12/10 00:57:45;;;;;;;0.20;0.20;;;;;;;5.54;100.00;95101.34;5043766;28;20033;-77
2023/12/10 01:00:31;;;;;;;0.20;0.20;;;;;;;5.60;100.00;95094.22;5044518;28;20588;-77
2023/12/10 01:03:18;;;;;;;0.20;0.20;;;;;;;5.64;100.00;95105.97;5043729;28;20049;-77
2023/12/10 01:06:04;;;;;;;0.20;0.20;;;;;;;5.68;100.00;95117.69;5042787;28;20028;-77
2023/12/10 01:08:50;;;;;;;0.10;0.10;;;;;;;5.65;100.00;95112.88;5044207;28;20189;-76
2023/12/10 01:11:36;;;;;;;0.20;0.20;;;;;;;5.62;100.00;95120.53;5046682;28;20041;-76
2023/12/10 01:14:22;;;;;;;0.20;0.20;;;;;;;5.58;100.00;95128.97;5030307;28;20309;-77
2023/12/10 01:17:08;;;;;;;0.20;0.20;;;;;;;5.61;100.00;95126.91;5042389;28;20504;-77
2023/12/10 01:19:54;;;;;;;0.20;0.20;;;;;;;5.64;100.00;95132.50;5043920;28;20090;-77
2023/12/10 01:22:40;;;;;;;0.20;0.20;;;;;;;5.63;100.00;95141.53;5044407;28;20054;-76
2023/12/10 01:25:26;;;;;;;0.17;0.17;;;;;;;5.67;100.00;95141.81;5045562;28;20032;-76
2023/12/10 01:28:12;;;;;;;0.20;0.20;;;;;;;5.68;100.00;95138.94;5046431;28;20599;-76
2023/12/10 01:30:58;;;;;;;0.20;0.20;;;;;;;5.65;100.00;95149.22;5047681;28;20512;-77
2023/12/10 01:33:44;;;;;;;0.13;0.13;;;;;;;5.65;100.00;95144.72;5048666;28;20033;-76
2023/12/10 01:36:30;;;;;;;0.20;0.20;;;;;;;5.66;100.00;95146.31;5049297;28;20165;-76
2023/12/10 01:39:19;;;;;;;0.10;0.10;;;;;;;5.66;100.00;95150.81;5046919;28;20062;-76
2023/12/10 01:42:05;;;;;;;0.20;0.20;;;;;;;5.63;100.00;95144.19;5021200;28;20123;-77
2023/12/10 01:44:51;;;;;;;0.20;0.20;;;;;;;5.61;100.00;95161.41;5045616;28;20525;-77
2023/12/10 01:47:41;;;;;;;0.20;0.20;;;;;;;5.49;100.00;95157.00;5049338;28;20041;-76
2023/12/10 01:50:27;;;;;;;0.20;0.20;;;;;;;5.38;100.00;95162.47;5039108;28;20064;-77
2023/12/10 01:53:15;;;;;;;0.10;0.10;;;;;;;5.38;100.00;95157.16;5048031;28;20047;-77
2023/12/10 01:56:01;;;;;;;0.20;0.20;;;;;;;5.32;100.00;95180.97;5046189;28;20571;-77
2023/12/10 01:58:48;;;;;;;0.20;0.20;;;;;;;5.27;100.00;95180.09;5047062;28;20579;-77
2023/12/10 02:01:34;;;;;;;0.20;0.20;;;;;;;5.24;100.00;95191.19;5045662;28;20036;-76
2023/12/10 02:04:20;;;;;;;0.20;0.20;;;;;;;5.20;100.00;95200.69;5045988;28;20053;-77
2023/12/10 02:07:05;;;;;;;0.17;0.17;;;;;;;5.21;100.00;95200.44;5048722;28;20049;-76
2023/12/10 02:09:51;;;;;;;0.20;0.20;;;;;;;5.23;100.00;95206.31;5034387;28;20059;-77
2023/12/10 02:12:39;;;;;;;0.20;0.20;;;;;;;5.31;100.00;95208.53;5046561;28;20136;-76
2023/12/10 02:15:28;;;;;;;0.17;0.17;;;;;;;5.37;100.00;95220.03;5044141;28;20459;-76
2023/12/10 02:18:17;;;;;;;0.20;0.20;;;;;;;5.36;100.00;95222.91;5045461;28;20386;-76
2023/12/10 02:21:03;;;;;;;0.10;0.10;;;;;;;5.41;100.00;95246.84;5046835;28;20043;-76
2023/12/10 02:24:11;;;;;;;0.17;0.17;;;;;;;5.54;100.00;95230.59;5046741;28;20094;-77
2023/12/10 02:26:57;;;;;;;0.20;0.20;;;;;;;5.55;100.00;95226.88;5044983;28;20575;-76
2023/12/10 02:29:43;;;;;;;0.10;0.10;;;;;;;5.56;100.00;95226.63;5045393;28;20033;-76
2023/12/10 02:32:29;;;;;;;0.20;0.20;;;;;;;5.59;100.00;95241.25;5045785;28;20040;-76
2023/12/10 02:35:15;;;;;;;0.20;0.20;;;;;;;5.60;100.00;95232.22;5047129;28;20052;-77
2023/12/10 02:38:04;;;;;;;0.10;0.10;;;;;;;5.60;100.00;95234.88;5045607;28;20051;-77
2023/12/10 02:40:50;;;;;;;0.20;0.20;;;;;;;5.58;100.00;95229.03;5045670;28;20472;-77
2023/12/10 02:43:36;;;;;;;0.17;0.17;;;;;;;5.54;100.00;95242.00;5045224;28;20037;-77
2023/12/10 02:46:22;;;;;;;0.10;0.10;;;;;;;5.54;100.00;95233.25;5045719;28;20036;-76
2023/12/10 02:49:08;;;;;;;0.10;0.10;;;;;;;5.56;100.00;95260.31;5047752;28;20047;-76
2023/12/10 02:51:54;;;;;;;0.17;0.17;;;;;;;5.58;100.00;95256.38;5047150;28;20028;-77
2023/12/10 02:54:40;;;;;;;0.10;0.10;;;;;;;5.50;100.00;95234.75;5046814;28;20579;-76
2023/12/10 02:57:26;;;;;;;0.20;0.20;;;;;;;5.55;100.00;95246.25;5022048;28;20258;-77
2023/12/10 03:00:12;;;;;;;0.20;0.20;;;;;;;5.51;100.00;95255.75;5048153;28;20036;-76
2023/12/10 03:02:58;;;;;;;0.20;0.20;;;;;;;5.53;100.00;95258.16;5044611;28;20112;-76
2023/12/10 03:05:43;;;;;;;0.20;0.20;;;;;;;5.50;100.00;95271.91;5043902;28;20832;-76
2023/12/10 03:08:29;;;;;;;0.20;0.20;;;;;;;5.25;100.00;95267.06;5048020;28;20421;-77
2023/12/10 03:11:15;;;;;;;0.20;0.20;;;;;;;5.27;100.00;95265.75;5047580;28;20619;-76
2023/12/10 03:14:03;;;;;;;0.20;0.20;;;;;;;5.34;100.00;95278.84;5044106;28;20060;-76
2023/12/10 03:16:49;;;;;;;0.10;0.10;;;;;;;5.27;100.00;95271.06;5045077;28;20036;-77
2023/12/10 03:19:38;;;;;;;0.20;0.20;;;;;;;5.19;100.00;95290.03;5045974;28;20040;-77
2023/12/10 03:22:24;;;;;;;0.10;0.10;;;;;;;5.08;100.00;95282.19;5044402;28;20372;-77
2023/12/10 03:25:09;;;;;;;0.20;0.20;;;;;;;5.08;100.00;95292.81;5045790;28;20120;-77
2023/12/10 03:27:55;;;;;;;0.20;0.20;;;;;;;5.01;100.00;95283.16;5033586;28;20075;-76
2023/12/10 03:30:41;;;;;;;0.13;0.13;;;;;;;5.07;100.00;95289.34;5047211;28;20109;-76
2023/12/10 03:33:27;;;;;;;0.20;0.20;;;;;;;5.14;100.00;95290.00;5045613;28;20139;-76
2023/12/10 03:36:14;;;;;;;0.20;0.20;;;;;;;5.07;100.00;95286.69;5044959;28;20086;-76
2023/12/10 03:39:00;;;;;;;0.20;0.20;;;;;;;5.06;100.00;95284.25;5045563;28;20448;-76
2023/12/10 03:41:46;;;;;;;0.20;0.20;;;;;;;5.06;100.00;95297.53;5046272;28;20037;-77
2023/12/10 03:44:32;;;;;;;0.20;0.20;;;;;;;5.10;100.00;95310.06;5045302;28;20029;-76
2023/12/10 03:47:18;;;;;;;0.10;0.10;;;;;;;5.06;100.00;95301.00;5019232;28;20394;-76
2023/12/10 03:50:04;;;;;;;0.20;0.20;;;;;;;5.12;100.00;95312.47;5045020;28;20033;-76
2023/12/10 03:52:50;;;;;;;0.20;0.20;;;;;;;5.13;100.00;95306.13;5044485;28;20151;-76
2023/12/10 03:55:36;;;;;;;0.20;0.20;;;;;;;5.13;100.00;95306.13;5047824;28;20497;-76
2023/12/10 03:58:22;;;;;;;0.10;0.10;;;;;;;5.06;100.00;95295.69;5044594;28;20439;-76
2023/12/10 04:01:08;;;;;;;0.20;0.20;;;;;;;5.06;100.00;95311.59;5043801;28;20064;-76
2023/12/10 04:03:54;;;;;;;0.20;0.20;;;;;;;5.13;100.00;95312.22;5044186;28;20092;-76
2023/12/10 04:06:40;;;;;;;0.20;0.20;;;;;;;5.14;100.00;95321.81;5046679;28;20089;-76
2023/12/10 04:09:26;;;;;;;0.20;0.20;;;;;;;5.13;100.00;95314.88;5045987;28;20207;-76
2023/12/10 04:12:12;;;;;;;0.20;0.20;;;;;;;5.19;100.00;95321.88;5030383;28;20414;-76
2023/12/10 04:14:58;;;;;;;0.20;0.20;;;;;;;5.17;100.00;95336.44;5045281;28;20052;-76
2023/12/10 04:17:44;;;;;;;0.20;0.20;;;;;;;5.21;100.00;95319.81;5045288;28;20028;-76
2023/12/10 04:20:30;;;;;;;0.20;0.20;;;;;;;5.16;100.00;95332.97;5045460;28;20556;-76
2023/12/10 04:23:16;;;;;;;0.10;0.10;;;;;;;5.20;100.00;95339.38;5044288;28;20037;-76
2023/12/10 04:26:02;;;;;;;0.20;0.20;;;;;;;5.19;100.00;95327.19;5044743;28;20037;-76
2023/12/10 04:28:48;;;;;;;0.17;0.17;;;;;;;5.20;100.00;95341.25;5043358;28;20160;-76
2023/12/10 04:31:35;;;;;;;0.20;0.20;;;;;;;5.23;100.00;95338.91;5044477;28;20064;-76
2023/12/10 04:34:21;;;;;;;0.20;0.20;;;;;;;5.25;100.00;95339.47;5042959;28;20052;-76
2023/12/10 04:37:07;;;;;;;0.20;0.20;;;;;;;5.22;100.00;95336.53;5042882;28;20031;-77
2023/12/10 04:39:53;;;;;;;0.17;0.17;;;;;;;5.26;100.00;95341.09;5043872;28;20043;-77
2023/12/10 04:42:39;;;;;;;0.20;0.20;;;;;;;5.23;100.00;95351.38;5045418;28;20514;-77
2023/12/10 04:45:25;;;;;;;0.20;0.20;;;;;;;5.28;100.00;95344.28;5045191;28;20392;-76
2023/12/10 04:48:12;;;;;;;0.20;0.20;;;;;;;5.25;100.00;95346.63;5044169;28;20045;-76
2023/12/10 04:50:59;;;;;;;0.20;0.20;;;;;;;5.25;100.00;95350.09;5036526;28;20919;-76
2023/12/10 04:53:45;;;;;;;0.20;0.20;;;;;;;5.22;100.00;95345.28;5041335;28;20029;-76
2023/12/10 04:56:31;;;;;;;0.20;0.20;;;;;;;5.18;100.00;95346.78;5046164;28;20037;-76
2023/12/10 04:59:17;;;;;;;0.20;0.20;;;;;;;5.17;100.00;95355.78;5044611;28;20040;-76
2023/12/10 05:02:04;;;;;;;0.20;0.20;;;;;;;5.18;100.00;95352.09;5044506;28;20600;-77
2023/12/10 05:04:49;;;;;;;0.20;0.20;;;;;;;5.18;100.00;95368.00;5012717;28;20534;-76
2023/12/10 05:07:35;;;;;;;0.20;0.20;;;;;;;5.23;100.00;95368.09;5014935;28;20179;-76
2023/12/10 05:10:22;;;;;;;0.20;0.20;;;;;;;5.19;100.00;95361.66;5025987;28;20041;-76
2023/12/10 05:13:07;;;;;;;0.20;0.20;;;;;;;5.18;100.00;95362.69;5027050;28;20114;-76
2023/12/10 05:15:55;;;;;;;0.20;0.20;;;;;;;5.17;100.00;95369.06;5026262;28;20164;-76
2023/12/10 05:18:41;;;;;;;0.20;0.20;;;;;;;5.15;100.00;95368.50;5026277;28;20417;-76
2023/12/10 05:21:27;;;;;;;0.20;0.20;;;;;;;5.15;100.00;95368.50;5027775;28;20061;-76
2023/12/10 05:24:13;;;;;;;0.20;0.20;;;;;;;5.11;100.00;95366.56;5026871;28;20087;-76
2023/12/10 05:26:59;;;;;;;0.13;0.13;;;;;;;5.11;100.00;95369.22;5025249;28;20036;-76
2023/12/10 05:29:45;;;;;;;0.10;0.10;;;;;;;5.00;100.00;95369.03;5026385;28;20087;-76
2023/12/10 05:32:31;;;;;;;0.10;0.10;;;;;;;5.06;100.00;95372.59;5026840;28;20132;-76
2023/12/10 05:35:17;;;;;;;0.20;0.20;;;;;;;5.07;100.00;95362.78;5025889;28;20364;-76
2023/12/10 05:38:03;;;;;;;0.20;0.20;;;;;;;5.02;100.00;95387.38;5026178;28;20041;-76
2023/12/10 05:40:49;;;;;;;0.20;0.20;;;;;;;5.04;100.00;95366.72;5025565;28;20661;-76
2023/12/10 05:43:35;;;;;;;0.20;0.20;;;;;;;5.03;100.00;95367.75;5027168;28;20482;-76
2023/12/10 05:46:21;;;;;;;0.15;0.15;;;;;;;4.96;100.00;95380.34;5025300;28;20045;-76
2023/12/10 05:49:07;;;;;;;0.10;0.10;;;;;;;4.97;100.00;95388.06;5024687;28;20045;-76
2023/12/10 05:51:53;;;;;;;0.10;0.10;;;;;;;5.03;100.00;95391.63;5018239;28;20040;-76
2023/12/10 05:54:38;;;;;;;0.20;0.20;;;;;;;5.04;100.00;95401.97;5011071;28;20917;-76
2023/12/10 05:57:24;;;;;;;0.20;0.20;;;;;;;4.99;100.00;95401.91;5017264;28;20536;-76
2023/12/10 06:00:11;;;;;;;0.20;0.20;;;;;;;5.01;100.00;95383.09;5024063;28;20025;-76
2023/12/10 06:02:57;;;;;;;0.20;0.20;;;;;;;5.02;100.00;95390.81;5018206;28;20078;-76
2023/12/10 06:05:43;;;;;;;0.10;0.10;;;;;;;5.02;100.00;95403.28;5006410;28;20040;-76
2023/12/10 06:08:28;;;;;;;0.20;0.20;;;;;;;5.06;100.00;95406.22;5007006;28;20188;-76
2023/12/10 06:11:14;;;;;;;0.10;0.10;;;;;;;5.07;100.00;95403.38;4990285;28;20039;-76
2023/12/10 06:14:00;;;;;;;0.20;0.20;;;;;;;5.06;100.00;95415.03;5009442;28;20056;-76
2023/12/10 06:16:46;;;;;;;0.30;0.30;;;;;;;5.14;100.00;95424.44;5007806;28;20060;-76
2023/12/10 06:19:32;;;;;;;0.20;0.20;;;;;;;5.14;100.00;95438.50;4999808;28;20049;-76
2023/12/10 06:22:21;;;;;;;0.20;0.20;;;;;;;5.18;100.00;95441.47;5007506;28;20052;-76
2023/12/10 06:25:07;;;;;;;0.20;0.20;;;;;;;5.19;100.00;95443.88;4997375;28;20068;-76
2023/12/10 06:27:54;;;;;;;0.20;0.20;;;;;;;5.16;100.00;95444.38;5009742;28;20443;-76
2023/12/10 06:30:39;;;;;;;0.20;0.20;;;;;;;5.17;100.00;95469.03;5008712;28;20469;-76
2023/12/10 06:33:25;;;;;;;0.20;0.20;;;;;;;5.14;100.00;95475.63;5007633;28;20048;-76
2023/12/10 06:36:11;;;;;;;0.17;0.17;;;;;;;5.09;100.00;95482.69;5008309;28;20463;-76
2023/12/10 06:38:57;;;;;;;0.20;0.20;;;;;;;5.01;100.00;95495.28;5008908;28;20090;-76
2023/12/10 06:41:43;;;;;;;0.20;0.20;;;;;;;5.04;100.00;95493.97;5007076;28;20061;-76
2023/12/10 06:44:29;;;;;;;0.20;0.20;;;;;;;5.07;100.00;95503.34;5008367;28;20049;-76
2023/12/10 06:47:15;;;;;;;0.20;0.20;;;;;;;4.99;100.00;95496.56;5008360;28;20397;-76
2023/12/10 06:50:01;;;;;;;0.20;0.20;;;;;;;5.03;100.00;95505.63;5011457;28;20072;-76
2023/12/10 06:52:47;;;;;;;0.10;0.10;;;;;;;5.08;100.00;95500.44;5008843;28;20029;-76
2023/12/10 06:55:33;;;;;;;0.10;0.10;;;;;;;5.02;100.00;95504.03;5009279;28;20296;-76
2023/12/10 06:58:19;;;;;;;0.20;0.20;;;;;;;5.04;100.00;95508.03;4995114;28;20044;-76
2023/12/10 07:01:05;;;;;;;0.10;0.10;;;;;;;5.06;100.00;95515.78;4997270;28;20034;-76
2023/12/10 07:03:51;;;;;;;0.20;0.20;;;;;;;5.11;100.00;95510.56;5009937;28;20045;-76
2023/12/10 07:06:38;;;;;;;0.20;0.20;;;;;;;5.10;100.00;95519.56;5009601;28;20049;-77
2023/12/10 07:09:23;;;;;;;0.20;0.20;;;;;;;5.13;100.00;95521.72;5010861;28;20045;-76
2023/12/10 07:12:09;;;;;;;0.20;0.20;;;;;;;5.16;100.00;95518.63;5007253;28;20034;-76
2023/12/10 07:14:55;;;;;;;0.22;0.22;;;;;;;5.14;100.00;95525.22;5006795;28;20038;-76
2023/12/10 07:17:41;;;;;;;0.10;0.10;;;;;;;5.10;100.00;95524.88;5007600;28;20250;-76
2023/12/10 07:20:27;;;;;;;0.10;0.10;;;;;;;5.15;100.00;95546.19;5009124;28;20087;-76
2023/12/10 07:23:13;;;;;;;0.20;0.20;;;;;;;5.16;100.00;95558.41;5006574;28;20029;-76
2023/12/10 07:25:59;;;;;;;0.20;0.20;;;;;;;5.23;100.00;95556.44;5008537;28;20117;-75
2023/12/10 07:28:45;;;;;;;0.13;0.13;;;;;;;5.24;100.00;95562.53;5006541;28;20080;-76
2023/12/10 07:31:31;;;;;;;0.20;0.20;;;;;;;5.32;100.00;95560.31;5018612;28;20129;-76
2023/12/10 07:34:20;;;;;;;0.20;0.20;;;;;;;5.23;100.00;95551.13;5028492;28;20081;-76
2023/12/10 07:37:06;;;;;;;0.30;0.30;;;;;;;5.35;100.00;95568.81;5026163;28;20076;-76
2023/12/10 07:39:52;;;;;;;0.20;0.20;;;;;;;5.29;100.00;95565.25;5028414;28;20039;-76
2023/12/10 07:42:37;;;;;;;0.20;0.20;;;;;;;5.33;100.00;95569.06;5026823;28;20045;-75
2023/12/10 07:45:23;;;;;;;0.20;0.20;;;;;;;5.39;100.00;95576.09;5033884;28;20120;-76
2023/12/10 07:48:09;;;;;;;0.20;0.20;;;;;;;5.36;100.00;95587.16;5028881;28;20519;-75
2023/12/10 07:50:56;;;;;;;0.10;0.10;;;;;;;5.45;100.00;95580.44;5027283;28;20072;-76
2023/12/10 07:53:42;;;;;;;0.13;0.13;;;;;;;5.49;100.00;95578.13;5027443;28;20469;-76
2023/12/10 07:56:28;;;;;;;0.20;0.20;;;;;;;5.53;100.00;95590.69;5022661;28;20406;-75
2023/12/10 07:59:13;;;;;;;0.10;0.10;;;;;;;5.50;100.00;95593.78;5026233;28;20361;-76
2023/12/10 08:01:59;;;;;;;0.20;0.20;;;;;;;5.52;100.00;95596.19;5026848;28;20296;-76
2023/12/10 08:04:45;;;;;;;0.20;0.20;;;;;;;5.50;100.00;95622.97;5025554;28;20041;-76
2023/12/10 08:07:31;;;;;;;0.10;0.10;;;;;;;5.54;100.00;95604.75;5026480;28;20040;-75
2023/12/10 08:10:18;;;;;;;0.15;0.15;;;;;;;5.58;100.00;95600.56;5026950;28;20124;-75
2023/12/10 08:13:04;;;;;;;0.20;0.20;;;;;;;5.57;100.00;95610.38;5032594;28;20355;-75
2023/12/10 08:15:50;;;;;;;0.10;0.10;;;;;;;5.64;100.00;95596.97;5025595;28;20038;-75
2023/12/10 08:18:36;;;;;;;0.20;0.20;;;;;;;5.62;100.00;95612.34;5027693;28;20033;-75
2023/12/10 08:21:21;;;;;;;0.20;0.20;;;;;;;5.58;100.00;95612.00;5026571;28;20405;-76
2023/12/10 08:24:07;;;;;;;0.20;0.20;;;;;;;5.61;100.00;95617.88;5025530;28;20075;-76
2023/12/10 08:26:54;;;;;;;0.20;0.20;;;;;;;5.62;100.00;95628.25;5025563;28;20584;-76
2023/12/10 08:29:40;;;;;;;0.20;0.20;;;;;;;5.61;100.00;95631.97;5025065;28;20063;-76
2023/12/10 08:32:27;;;;;;;0.20;0.20;;;;;;;5.64;100.00;95620.84;5024754;28;20543;-76
2023/12/10 08:35:13;;;;;;;0.10;0.10;;;;;;;5.65;100.00;95633.09;5025993;28;20342;-76
2023/12/10 08:37:59;;;;;;;0.20;0.20;;;;;;;5.67;100.00;95641.59;5025248;28;20380;-76
2023/12/10 08:40:44;;;;;;;0.20;0.20;;;;;;;5.67;100.00;95641.59;5027370;28;20049;-76
2023/12/10 08:43:32;;;;;;;0.20;0.20;;;;;;;5.69;100.00;95646.72;5024972;28;20041;-75
2023/12/10 08:46:18;;;;;;;0.20;0.20;;;;;;;5.69;100.00;95668.75;5025312;28;20339;-76
2023/12/10 08:49:04;;;;;;;0.20;0.20;;;;;;;5.67;100.00;95673.47;5026476;28;20039;-76
2023/12/10 08:51:50;;;;;;;0.20;0.20;;;;;;;5.77;100.00;95664.91;5024858;28;20044;-76
2023/12/10 08:54:36;;;;;;;0.20;0.20;;;;;;;5.73;100.00;95683.13;4997777;28;20042;-76
2023/12/10 08:57:23;;;;;;;0.20;0.20;;;;;;;5.77;100.00;95681.63;5029932;28;20470;-76
2023/12/10 09:00:10;;;;;;;0.10;0.10;;;;;;;5.83;100.00;95680.66;5037690;28;20040;-76
2023/12/10 09:02:56;;;;;;;0.20;0.20;;;;;;;5.83;100.00;95685.97;5030017;28;20496;-76
2023/12/10 09:05:42;;;;;;;0.20;0.20;;;;;;;5.85;100.00;95699.84;5045751;28;20055;-76
2023/12/10 09:08:29;;;;;;;0.20;0.20;;;;;;;5.93;100.00;95684.63;5045942;28;20365;-76
2023/12/10 09:11:15;;;;;;;0.20;0.20;;;;;;;5.98;100.00;95705.94;5046067;28;20124;-76
2023/12/10 09:14:01;;;;;;;0.20;0.20;;;;;;;6.14;100.00;95699.84;5044495;28;20048;-76
2023/12/10 09:16:47;;;;;;;0.20;0.20;;;;;;;6.27;100.00;95696.09;5045397;28;20112;-77
2023/12/10 09:19:34;;;;;;;0.20;0.20;;;;;;;6.29;100.00;95708.09;5047098;28;20116;-77
2023/12/10 09:22:19;;;;;;;0.20;0.20;;;;;;;6.49;100.00;95728.09;5044652;28;20278;-77
2023/12/10 09:25:06;;;;;;;0.20;0.20;;;;;;;6.70;100.00;95703.47;5045587;28;20041;-78
2023/12/10 09:27:51;;;;;;;0.10;0.10;;;;;;;6.91;100.00;95712.53;5044081;28;20075;-79
2023/12/10 09:30:38;;;;;;;0.20;0.20;;;;;;;7.03;100.00;95707.97;5044673;28;20063;-78
2023/12/10 09:33:24;;;;;;;0.30;0.30;;;;;;;7.70;100.00;95717.59;5044550;28;20041;-77
2023/12/10 09:36:10;;;;;;;0.20;0.20;;;;;;;7.23;100.00;95716.22;5046461;28;20033;-77
2023/12/10 09:38:56;;;;;;;0.20;0.20;;;;;;;7.58;100.00;95724.94;5031980;28;20046;-77
2023/12/10 09:41:41;;;;;;;0.20;0.20;;;;;;;7.91;100.00;95719.47;5044157;28;20049;-78
2023/12/10 09:44:27;;;;;;;0.13;0.13;;;;;;;8.07;100.00;95723.91;5046417;28;20044;-77
2023/12/10 09:47:14;;;;;;;0.20;0.20;;;;;;;9.08;100.00;95723.22;5031120;28;20032;-77
2023/12/10 09:50:02;;;;;;;0.10;0.10;;;;;;;8.52;100.00;95730.78;5049881;28;20957;-77
2023/12/10 09:52:48;;;;;;;0.10;0.10;;;;;;;8.46;100.00;95723.78;5050261;28;20044;-77
2023/12/10 09:55:35;;;;;;;0.20;0.20;;;;;;;8.56;100.00;95731.06;5049588;28;20037;-77
2023/12/10 09:58:21;;;;;;;0.15;0.15;;;;;;;8.12;100.00;95731.16;5048755;28;20090;-78
2023/12/10 10:01:08;;;;;;;0.10;0.10;;;;;;;8.33;100.00;95725.00;5046217;28;20028;-77
2023/12/10 10:03:55;;;;;;;0.20;0.20;;;;;;;8.87;100.00;95729.47;5048792;28;20588;-78
2023/12/10 10:06:41;;;;;;;0.20;0.20;;;;;;;9.45;100.00;95738.44;5048953;28;20025;-78
2023/12/10 10:09:27;;;;;;;0.10;0.10;;;;;;;8.62;100.00;95740.75;5049045;28;20040;-78
2023/12/10 10:12:14;;;;;;;0.20;0.20;;;;;;;8.46;100.00;95739.78;5047197;28;20032;-78
2023/12/10 10:15:01;;;;;;;0.20;0.20;;;;;;;8.71;100.00;95738.41;5050067;28;20074;-78
2023/12/10 10:17:47;;;;;;;0.20;0.20;;;;;;;8.87;100.00;95742.81;5048977;28;20040;-78
2023/12/10 10:20:33;;;;;;;0.20;0.20;;;;;;;10.24;100.00;95740.94;5050696;28;20044;-78
2023/12/10 10:23:21;;;;;;;0.30;0.30;;;;;;;10.86;97.50;95731.13;5048236;28;20044;-78
2023/12/10 10:26:07;;;;;;;0.52;0.40;;;;;;;11.61;97.52;95723.28;5036044;28;20127;-78
2023/12/10 10:28:53;;;;;;;0.20;0.20;;;;;;;10.73;99.68;95731.66;5040428;28;20092;-78
2023/12/10 10:31:40;;;;;;;0.20;0.20;;;;;;;11.35;90.15;95733.22;5047126;28;20043;-78
2023/12/10 10:34:27;;;;;;;0.20;0.20;;;;;;;9.90;100.00;95737.84;5047332;28;20068;-78
2023/12/10 10:37:15;;;;;;;0.20;0.20;;;;;;;9.42;100.00;95749.63;5036455;28;20037;-78
2023/12/10 10:40:03;;;;;;;0.20;0.20;;;;;;;9.42;100.00;95745.09;5047938;28;20115;-78
2023/12/10 10:42:49;;;;;;;0.10;0.10;;;;;;;9.14;100.00;95740.09;5048234;28;20559;-78
2023/12/10 10:45:35;;;;;;;0.20;0.20;;;;;;;8.95;100.00;95745.03;5049235;28;20468;-78
2023/12/10 10:48:25;;;;;;;0.13;0.13;;;;;;;9.23;100.00;95748.44;5048546;28;20044;-78
2023/12/10 10:51:11;;;;;;;0.20;0.20;;;;;;;9.18;100.00;95744.69;5050464;28;20041;-78
2023/12/10 10:53:59;;;;;;;0.17;0.17;;;;;;;10.43;100.00;95743.13;5048301;28;20044;-78
2023/12/10 10:56:45;;;;;;;0.20;0.20;;;;;;;10.26;100.00;95736.13;5044438;28;20432;-78
2023/12/10 10:59:33;;;;;;;0.30;0.30;;;;;;;9.74;100.00;95739.66;5045683;28;20045;-78
2023/12/10 11:02:19;;;;;;;0.20;0.20;;;;;;;9.56;100.00;95739.28;5044484;28;20300;-77
2023/12/10 11:05:05;;;;;;;0.10;0.10;;;;;;;10.85;100.00;95743.72;5047496;28;20155;-78
2023/12/10 11:07:51;;;;;;;0.30;0.30;;;;;;;13.55;83.17;95729.06;5045795;28;20753;-78
2023/12/10 11:10:43;;;;;;;0.20;0.20;;;;;;;13.11;76.88;95732.66;5047018;28;20041;-77
2023/12/10 11:13:56;;;;;;;0.20;0.20;;;;;;;13.27;71.34;95724.47;5020126;28;20425;-77
2023/12/10 11:16:42;;;;;;;0.20;0.20;;;;;;;12.45;79.24;95714.34;5033612;28;20497;-77
2023/12/10 11:19:28;;;;;;;0.30;0.30;;;;;;;15.63;66.30;95702.94;5047997;28;20408;-78
2023/12/10 11:22:14;;;;;;;0.30;0.30;;;;;;;17.19;52.47;95709.84;5047503;28;20504;-78
2023/12/10 11:25:00;;;;;;;0.30;0.30;;;;;;;18.20;50.49;95697.41;5048969;28;20032;-78
2023/12/10 11:27:46;;;;;;;0.20;0.20;;;;;;;15.62;55.68;95706.72;5048772;28;20036;-78
2023/12/10 11:30:32;;;;;;;0.30;0.30;;;;;;;15.50;62.64;95701.81;5045520;28;20036;-78
2023/12/10 11:33:18;;;;;;;0.20;0.20;;;;;;;16.03;54.67;95701.38;5046473;28;20037;-78
2023/12/10 11:36:05;;;;;;;0.20;0.20;;;;;;;14.84;65.74;95708.31;5048745;28;20037;-78
2023/12/10 11:38:51;;;;;;;0.20;0.20;;;;;;;12.75;69.14;95726.75;5047458;28;20198;-78
2023/12/10 11:41:39;;;;;;;0.30;0.30;;;;;;;14.15;73.09;95723.25;5048746;28;20135;-78
2023/12/10 11:44:27;;;;;;;0.20;0.20;;;;;;;17.53;52.71;95714.66;5046343;28;20040;-78
2023/12/10 11:47:12;;;;;;;0.30;0.30;;;;;;;19.27;46.07;95683.28;5047243;28;20040;-78
2023/12/10 11:49:58;;;;;;;0.30;0.30;;;;;;;20.29;42.48;95691.38;5047350;28;20051;-79
2023/12/10 11:52:45;;;;;;;0.10;0.10;;;;;;;19.81;41.41;95680.91;5046011;28;20375;-79
2023/12/10 11:55:31;;;;;;;0.30;0.30;;;;;;;20.77;41.72;95690.91;5048991;28;20048;-78
2023/12/10 11:58:27;;;;;;;0.20;0.20;;;;;;;19.50;42.45;95692.81;5046216;28;20035;-78
2023/12/10 12:01:16;;;;;;;0.20;0.20;;;;;;;19.64;41.78;95692.66;5038417;28;20112;-78
2023/12/10 12:04:02;;;;;;;0.20;0.20;;;;;;;19.65;43.22;95695.03;5010535;28;20042;-78
2023/12/10 12:06:48;;;;;;;0.20;0.20;;;;;;;18.93;43.68;95698.50;5007124;28;20033;-79
2023/12/10 12:09:34;;;;;;;0.20;0.20;;;;;;;19.05;41.03;95698.63;5006690;28;20108;-79
2023/12/10 12:12:23;;;;;;;0.20;0.20;;;;;;;18.96;44.24;95703.25;5005529;28;20299;-78
2023/12/10 12:15:11;;;;;;;0.10;0.10;;;;;;;18.01;44.76;95709.31;5008310;28;20073;-79
2023/12/10 12:17:57;;;;;;;0.10;0.10;;;;;;;15.24;51.56;95717.59;5007839;28;20525;-79
2023/12/10 12:20:44;;;;;;;0.10;0.10;;;;;;;13.89;58.43;95741.59;5005752;28;20210;-78
2023/12/10 12:23:30;;;;;;;0.10;0.10;;;;;;;13.04;68.23;95732.16;5006737;28;20525;-78
2023/12/10 12:26:16;;;;;;;0.10;0.10;;;;;;;11.96;79.35;95731.22;5006599;28;20336;-78
2023/12/10 12:29:02;;;;;;;0.10;0.10;;;;;;;11.73;85.46;95723.75;5008341;28;20038;-78
2023/12/10 12:31:48;;;;;;;0.20;0.20;;;;;;;11.38;88.94;95730.03;5006052;28;20395;-78
2023/12/10 12:34:34;;;;;;;0.15;0.15;;;;;;;10.96;93.64;95733.00;5007257;28;20036;-78
2023/12/10 12:37:20;;;;;;;0.10;0.10;;;;;;;10.84;96.41;95739.44;5006674;28;20572;-78
2023/12/10 12:40:07;;;;;;;0.13;0.13;;;;;;;10.54;99.93;95740.19;5004457;28;20041;-78
2023/12/10 12:42:53;;;;;;;0.10;0.10;;;;;;;10.65;99.91;95734.84;5006562;28;20432;-78
2023/12/10 12:45:39;;;;;;;0.10;0.10;;;;;;;10.19;100.00;95732.84;5007369;28;20603;-78
2023/12/10 12:48:25;;;;;;;0.10;0.10;;;;;;;10.07;100.00;95728.81;5004816;28;20038;-77
2023/12/10 12:51:11;;;;;;;0.13;0.13;;;;;;;10.24;100.00;95732.91;5007853;28;20046;-77
2023/12/10 12:53:58;;;;;;;0.10;0.10;;;;;;;9.71;100.00;95728.66;4995185;28;20037;-78
2023/12/10 12:56:45;;;;;;;0.10;0.10;;;;;;;9.94;100.00;95732.78;5008118;28;20033;-78
2023/12/10 12:59:31;;;;;;;0.10;0.10;;;;;;;9.96;100.00;95727.97;5007362;28;20050;-78
2023/12/10 13:02:18;;;;;;;0.10;0.10;;;;;;;9.66;100.00;95721.44;5007042;28;20586;-78
2023/12/10 13:05:04;;;;;;;0.10;0.10;;;;;;;9.90;100.00;95724.50;5025668;28;20174;-77